Time;durP1;ratioP1;P1;durP2;ratioP2;P2;SDS_P1;SDS_P2;PMS_P1;PMS_P2;Temp;Humidity;BMP_temperature;BMP_pressure;BME280_temperature;BME280_humidity;BME280_pressure;Samples;Min_cycle;Max_cycle;Signal;HPM_P1;HPM_P2
2024/02/19 00:00:33;;;;;;;0.50;0.50;;;;;;;0.41;70.25;102158.94;5033635;28;20950;-75
2024/02/19 00:03:02;;;;;;;0.70;0.70;;;;;;;0.42;71.15;102149.50;5033459;28;20483;-74
2024/02/19 00:05:30;;;;;;;2.90;0.43;;;;;;;0.40;70.74;102148.59;5047422;28;20482;-74
2024/02/19 00:07:58;;;;;;;0.50;0.40;;;;;;;0.39;71.30;102139.06;5053489;28;20446;-74
2024/02/19 00:10:26;;;;;;;0.30;0.30;;;;;;;0.41;70.90;102143.47;5053540;28;20427;-74
2024/02/19 00:12:53;;;;;;;2.03;0.60;;;;;;;0.42;70.80;102134.06;5053280;28;20439;-74
2024/02/19 00:15:20;;;;;;;1.10;0.30;;;;;;;0.43;71.01;102128.09;5053441;28;20438;-74
2024/02/19 00:17:47;;;;;;;0.63;0.57;;;;;;;0.41;70.71;102122.88;5053196;28;20434;-74
2024/02/19 00:20:14;;;;;;;2.00;0.50;;;;;;;0.42;71.15;102121.19;5053322;28;20764;-74
2024/02/19 00:22:41;;;;;;;0.53;0.53;;;;;;;0.42;71.00;102116.03;5053023;28;20436;-74
2024/02/19 00:25:08;;;;;;;4.40;0.70;;;;;;;0.42;70.87;102116.03;5053444;28;20438;-74
2024/02/19 00:27:36;;;;;;;1.50;0.40;;;;;;;0.43;70.95;102104.94;5052988;28;20475;-74
2024/02/19 00:30:03;;;;;;;2.10;0.47;;;;;;;0.43;71.13;102105.81;5053099;28;20799;-77
2024/02/19 00:32:30;;;;;;;2.97;0.77;;;;;;;0.43;71.44;102102.34;5053267;28;20441;-76
2024/02/19 00:34:57;;;;;;;2.30;0.40;;;;;;;0.44;71.20;102086.06;5053079;28;20521;-76
2024/02/19 00:37:24;;;;;;;1.80;0.40;;;;;;;0.44;71.44;102089.53;5053106;28;20450;-77
2024/02/19 00:39:51;;;;;;;0.93;0.60;;;;;;;0.45;71.31;102090.41;5053119;28;20439;-77
2024/02/19 00:42:18;;;;;;;0.77;0.60;;;;;;;0.44;71.10;102086.06;5052460;28;20451;-77
2024/02/19 00:44:47;;;;;;;1.27;0.50;;;;;;;0.44;71.40;102070.63;5052771;28;20440;-77
2024/02/19 00:47:14;;;;;;;0.43;0.43;;;;;;;0.46;71.40;102075.03;5052942;28;20482;-77
2024/02/19 00:49:41;;;;;;;0.87;0.53;;;;;;;0.47;71.29;102071.63;5052815;28;20434;-75
2024/02/19 00:52:08;;;;;;;0.33;0.33;;;;;;;0.48;71.86;102067.34;5052731;28;20444;-77
2024/02/19 00:54:35;;;;;;;2.20;0.60;;;;;;;0.46;71.30;102064.72;5052934;28;20468;-77
2024/02/19 00:57:02;;;;;;;0.67;0.60;;;;;;;0.47;71.46;102058.75;5052562;28;20932;-77
2024/02/19 00:59:29;;;;;;;2.50;0.83;;;;;;;0.48;71.44;102049.31;5052570;28;20438;-77
2024/02/19 01:01:57;;;;;;;2.37;0.70;;;;;;;0.49;71.51;102044.25;5052872;28;20443;-77
2024/02/19 01:04:24;;;;;;;0.77;0.50;;;;;;;0.50;71.49;102046.00;5052656;28;20447;-77
2024/02/19 01:06:50;;;;;;;3.07;0.60;;;;;;;0.48;71.84;102032.19;5052578;28;20488;-76
2024/02/19 01:09:17;;;;;;;0.57;0.40;;;;;;;0.50;71.27;102030.53;5052630;28;20442;-77
2024/02/19 01:11:44;;;;;;;1.07;0.60;;;;;;;0.52;71.24;102028.03;5052575;28;20453;-77
2024/02/19 01:14:11;;;;;;;0.40;0.40;;;;;;;0.50;71.68;102025.38;5052491;28;20434;-77
2024/02/19 01:16:38;;;;;;;0.77;0.47;;;;;;;0.51;71.44;102013.41;5052720;28;20481;-77
2024/02/19 01:19:06;;;;;;;2.83;0.63;;;;;;;0.51;71.45;102006.56;5052461;28;20446;-77
2024/02/19 01:21:33;;;;;;;3.10;0.70;;;;;;;0.53;71.94;102009.19;5052437;28;20938;-76
2024/02/19 01:24:01;;;;;;;0.87;0.50;;;;;;;0.51;71.66;102005.69;5052429;28;20674;-76
2024/02/19 01:26:27;;;;;;;2.03;0.80;;;;;;;0.54;71.43;102000.66;5034513;28;21020;-77
2024/02/19 01:28:54;;;;;;;0.80;0.60;;;;;;;0.53;71.58;101999.75;5032474;28;20944;-77
2024/02/19 01:31:22;;;;;;;0.60;0.60;;;;;;;0.54;71.48;102000.66;5032280;28;20945;-77
2024/02/19 01:33:49;;;;;;;2.57;1.23;;;;;;;0.55;71.49;101994.69;5032578;28;20505;-77
2024/02/19 01:36:17;;;;;;;1.10;0.50;;;;;;;0.55;71.94;101992.97;5032413;28;20455;-77
2024/02/19 01:38:44;;;;;;;1.40;0.60;;;;;;;0.55;71.54;101987.81;5032424;28;20440;-73
2024/02/19 01:41:11;;;;;;;0.50;0.50;;;;;;;0.56;71.68;101984.41;5032370;28;20911;-73
2024/02/19 01:43:38;;;;;;;3.40;0.80;;;;;;;0.57;71.61;101981.03;5032304;28;20913;-73
2024/02/19 01:46:05;;;;;;;1.90;0.60;;;;;;;0.58;71.76;101979.34;5032320;28;21020;-73
2024/02/19 01:48:32;;;;;;;0.53;0.40;;;;;;;0.58;71.98;101969.91;5032243;28;20437;-72
2024/02/19 01:51:01;;;;;;;1.67;0.60;;;;;;;0.58;71.74;101962.19;5032570;28;20437;-73
2024/02/19 01:53:30;;;;;;;1.80;0.50;;;;;;;0.60;71.84;101958.81;5032417;28;20485;-73
2024/02/19 01:55:57;;;;;;;1.23;0.53;;;;;;;0.60;71.65;101958.81;5035204;28;20527;-73
2024/02/19 01:58:25;;;;;;;2.10;0.80;;;;;;;0.61;72.00;101952.81;5035959;28;20453;-73
2024/02/19 02:00:52;;;;;;;0.70;0.40;;;;;;;0.60;71.93;101951.94;5035863;28;20502;-73
2024/02/19 02:03:22;;;;;;;1.60;0.47;;;;;;;0.61;71.59;101942.53;5035857;28;20445;-72
2024/02/19 02:05:49;;;;;;;1.47;0.63;;;;;;;0.62;71.69;101944.25;5035764;28;20793;-73
2024/02/19 02:08:16;;;;;;;1.83;0.73;;;;;;;0.64;71.47;101945.19;5035667;28;20444;-73
2024/02/19 02:10:44;;;;;;;1.50;0.50;;;;;;;0.63;71.88;101941.75;5035637;28;20439;-73
2024/02/19 02:13:11;;;;;;;2.57;0.67;;;;;;;0.64;71.86;101942.63;5035676;28;20950;-73
2024/02/19 02:15:38;;;;;;;2.00;0.60;;;;;;;0.64;72.13;101935.78;5035600;28;20494;-73
2024/02/19 02:18:05;;;;;;;0.77;0.40;;;;;;;0.66;71.78;101922.97;5035815;28;20441;-70
2024/02/19 02:20:32;;;;;;;0.50;0.50;;;;;;;0.66;71.73;101918.69;5035497;28;20442;-69
2024/02/19 02:22:59;;;;;;;1.37;0.57;;;;;;;0.67;72.18;101914.41;5035406;28;20452;-70
2024/02/19 02:25:26;;;;;;;3.80;0.60;;;;;;;0.67;72.19;101911.84;5035577;28;20447;-69
2024/02/19 02:27:54;;;;;;;0.80;0.63;;;;;;;0.69;71.51;101917.94;5035316;28;20483;-69
2024/02/19 02:30:21;;;;;;;1.63;0.63;;;;;;;0.69;72.11;101910.19;5035731;28;20467;-70
2024/02/19 02:32:52;;;;;;;0.70;0.57;;;;;;;0.69;71.52;101911.06;5035235;28;20431;-70
2024/02/19 02:35:19;;;;;;;1.50;0.53;;;;;;;0.70;71.50;101902.50;5035393;28;20448;-69
2024/02/19 02:37:46;;;;;;;1.30;0.80;;;;;;;0.72;71.80;101898.28;5035191;28;20450;-69
2024/02/19 02:40:13;;;;;;;0.90;0.60;;;;;;;0.72;71.91;101887.13;5035091;28;20448;-69
2024/02/19 02:42:40;;;;;;;4.43;0.73;;;;;;;0.72;72.14;101888.00;5035160;28;20437;-70
2024/02/19 02:45:09;;;;;;;1.97;0.90;;;;;;;0.75;72.07;101882.06;5035161;28;20446;-69
2024/02/19 02:47:36;;;;;;;1.43;0.73;;;;;;;0.75;72.43;101876.91;5034951;28;20567;-70
2024/02/19 02:50:04;;;;;;;2.37;0.60;;;;;;;0.75;72.31;101877.78;5035066;28;20444;-69
2024/02/19 02:52:31;;;;;;;1.40;0.50;;;;;;;0.72;72.45;101867.38;5035099;28;20534;-69
2024/02/19 02:54:58;;;;;;;4.07;0.97;;;;;;;0.73;72.44;101869.13;5034938;28;20476;-69
2024/02/19 02:57:24;;;;;;;1.90;0.90;;;;;;;0.75;72.51;101871.78;5034802;28;20444;-70
2024/02/19 02:59:52;;;;;;;1.30;0.90;;;;;;;0.75;72.42;101864.03;5034752;28;20828;-69
2024/02/19 03:02:20;;;;;;;2.47;1.10;;;;;;;0.76;72.31;101870.94;5035200;28;20993;-70
2024/02/19 03:04:47;;;;;;;0.80;0.80;;;;;;;0.75;72.87;101861.47;5034495;28;20433;-70
2024/02/19 03:07:13;;;;;;;1.03;0.40;;;;;;;0.74;72.56;101860.59;5034556;28;20506;-69
2024/02/19 03:09:40;;;;;;;2.00;1.37;;;;;;;0.70;72.65;101848.41;5034619;28;20446;-69
2024/02/19 03:12:07;;;;;;;2.87;0.90;;;;;;;0.74;72.57;101859.72;5034727;28;20445;-69
2024/02/19 03:14:35;;;;;;;3.13;1.00;;;;;;;0.74;72.67;101847.72;5034743;28;20445;-69
2024/02/19 03:17:02;;;;;;;1.70;0.83;;;;;;;0.77;72.97;101844.38;5034635;28;20968;-69
2024/02/19 03:19:30;;;;;;;2.60;1.00;;;;;;;0.76;73.19;101842.59;5034428;28;20432;-69
2024/02/19 03:21:57;;;;;;;1.60;0.90;;;;;;;0.73;72.48;101834.78;5034587;28;20518;-69
2024/02/19 03:24:24;;;;;;;1.87;0.90;;;;;;;0.76;73.08;101833.16;5034343;28;20928;-70
2024/02/19 03:26:51;;;;;;;1.87;0.90;;;;;;;0.75;72.55;101826.28;5034112;28;20482;-69
2024/02/19 03:29:18;;;;;;;2.57;1.10;;;;;;;0.76;72.37;101816.84;5034472;28;20448;-78
2024/02/19 03:31:46;;;;;;;1.10;1.00;;;;;;;0.74;72.84;101823.66;5034322;28;20443;-78
2024/02/19 03:34:13;;;;;;;1.67;0.80;;;;;;;0.74;72.45;101810.78;5034424;28;20493;-78
2024/02/19 03:36:50;;;;;;;2.20;1.20;;;;;;;0.73;73.12;101812.47;5034099;28;20444;-78
2024/02/19 03:39:17;;;;;;;3.50;1.37;;;;;;;0.74;72.93;101808.22;5034352;28;20435;-78
2024/02/19 03:41:44;;;;;;;2.10;1.40;;;;;;;0.73;72.91;101801.28;5034281;28;20447;-78
2024/02/19 03:44:11;;;;;;;2.47;1.27;;;;;;;0.74;72.85;101798.78;5034115;28;20441;-78
2024/02/19 03:46:38;;;;;;;3.97;1.30;;;;;;;0.74;73.23;101792.75;5033751;28;20490;-78
2024/02/19 03:49:05;;;;;;;2.20;1.43;;;;;;;0.71;73.20;101788.38;5033933;28;20492;-78
2024/02/19 03:51:32;;;;;;;2.23;1.53;;;;;;;0.70;73.37;101789.19;5033889;28;20452;-78
2024/02/19 03:54:00;;;;;;;2.07;1.70;;;;;;;0.73;73.32;101786.69;5033946;28;20440;-77
2024/02/19 03:56:27;;;;;;;2.17;1.40;;;;;;;0.68;72.93;101777.06;5033913;28;20463;-78
2024/02/19 03:58:54;;;;;;;2.97;1.80;;;;;;;0.72;73.11;101784.09;5033771;28;20438;-76
2024/02/19 04:01:21;;;;;;;2.53;1.40;;;;;;;0.72;73.54;101778.94;5033707;28;20444;-76
2024/02/19 04:03:48;;;;;;;4.13;1.80;;;;;;;0.71;73.32;101775.50;5040758;28;20440;-76
2024/02/19 04:06:15;;;;;;;2.40;1.73;;;;;;;0.72;73.35;101774.66;5053716;28;20444;-76
2024/02/19 04:08:41;;;;;;;0.87;0.77;;;;;;;0.73;73.11;101775.53;5053474;28;20550;-76
2024/02/19 04:11:10;;;;;;;5.23;2.10;;;;;;;0.72;73.48;101766.94;5053360;28;20444;-76
2024/02/19 04:13:37;;;;;;;2.80;1.80;;;;;;;0.72;73.50;101763.47;5053415;28;20431;-76
2024/02/19 04:16:08;;;;;;;2.37;1.50;;;;;;;0.74;73.53;101755.00;5053567;28;20795;-76
2024/02/19 04:18:35;;;;;;;1.47;1.37;;;;;;;0.74;73.21;101754.13;5052618;28;20451;-76
2024/02/19 04:21:02;;;;;;;1.80;1.63;;;;;;;0.73;73.09;101754.91;5053431;28;20433;-76
2024/02/19 04:23:29;;;;;;;3.83;1.70;;;;;;;0.74;73.61;101761.84;5053253;28;20478;-76
2024/02/19 04:25:56;;;;;;;3.27;2.00;;;;;;;0.72;73.53;101748.91;5053229;28;20443;-76
2024/02/19 04:28:24;;;;;;;3.90;1.90;;;;;;;0.74;73.41;101743.81;5053003;28;20479;-76
2024/02/19 04:30:51;;;;;;;3.07;1.77;;;;;;;0.73;73.60;101740.34;5053201;28;20523;-76
2024/02/19 04:33:18;;;;;;;2.10;1.90;;;;;;;0.73;73.84;101735.19;5052990;28;20467;-76
2024/02/19 04:35:45;;;;;;;2.97;2.00;;;;;;;0.73;73.73;101734.31;5053163;28;20448;-76
2024/02/19 04:38:12;;;;;;;3.23;2.00;;;;;;;0.74;73.69;101725.78;5053363;28;20799;-74
2024/02/19 04:40:38;;;;;;;4.60;2.20;;;;;;;0.74;73.95;101725.78;5052831;28;20778;-73
2024/02/19 04:43:05;;;;;;;2.83;1.90;;;;;;;0.74;73.31;101726.66;5052848;28;20452;-74
2024/02/19 04:45:33;;;;;;;4.10;2.07;;;;;;;0.75;74.00;101714.66;5052804;28;20432;-73
2024/02/19 04:48:00;;;;;;;2.97;1.63;;;;;;;0.75;73.92;101717.22;5052808;28;20481;-73
2024/02/19 04:50:27;;;;;;;2.90;2.17;;;;;;;0.74;73.95;101716.34;5052972;28;20465;-73
2024/02/19 04:52:54;;;;;;;2.20;1.90;;;;;;;0.75;74.39;101714.66;5052874;28;20445;-72
2024/02/19 04:55:21;;;;;;;4.00;2.10;;;;;;;0.75;74.40;101709.50;5052860;28;20489;-73
2024/02/19 04:57:48;;;;;;;4.10;2.60;;;;;;;0.75;74.44;101706.91;5052979;28;20440;-73
2024/02/19 05:00:15;;;;;;;4.33;2.20;;;;;;;0.75;74.34;101706.91;5052659;28;20427;-73
2024/02/19 05:02:44;;;;;;;3.60;2.30;;;;;;;0.76;74.10;101703.50;5052489;28;20446;-73
2024/02/19 05:05:11;;;;;;;3.13;2.20;;;;;;;0.74;74.50;101700.03;5053027;28;20448;-73
2024/02/19 05:07:38;;;;;;;3.67;2.03;;;;;;;0.74;74.51;101698.31;5052381;28;20484;-73
2024/02/19 05:10:07;;;;;;;2.83;1.67;;;;;;;0.76;74.26;101700.94;5052638;28;20435;-74
2024/02/19 05:12:33;;;;;;;4.03;2.03;;;;;;;0.76;74.74;101690.63;5052383;28;20443;-73
2024/02/19 05:15:01;;;;;;;3.37;1.87;;;;;;;0.75;74.51;101691.47;5052642;28;20439;-74
2024/02/19 05:17:28;;;;;;;4.43;1.60;;;;;;;0.74;74.85;101684.56;5052537;28;20449;-74
2024/02/19 05:19:56;;;;;;;2.63;1.83;;;;;;;0.76;74.35;101693.19;5052325;28;20466;-74
2024/02/19 05:22:24;;;;;;;3.40;1.60;;;;;;;0.76;74.52;101691.50;5052437;28;20937;-74
2024/02/19 05:24:51;;;;;;;2.37;1.50;;;;;;;0.76;74.48;101682.91;5052466;28;20431;-74
2024/02/19 05:27:19;;;;;;;2.53;1.27;;;;;;;0.76;74.54;101680.31;5052218;28;20517;-74
2024/02/19 05:29:46;;;;;;;2.10;1.30;;;;;;;0.76;74.53;101678.59;5055295;28;20476;-74
2024/02/19 05:32:13;;;;;;;3.20;1.60;;;;;;;0.74;75.20;101680.28;5030166;28;20462;-74
2024/02/19 05:34:40;;;;;;;2.23;1.77;;;;;;;0.75;74.96;101686.31;5055497;28;20435;-74
2024/02/19 05:37:08;;;;;;;1.90;1.70;;;;;;;0.76;74.60;101682.91;5056565;28;20435;-74
2024/02/19 05:39:35;;;;;;;2.60;2.00;;;;;;;0.77;74.99;101682.09;5056492;28;20803;-74
2024/02/19 05:42:02;;;;;;;1.87;1.67;;;;;;;0.76;74.48;101683.75;5056101;28;20950;-74
2024/02/19 05:44:29;;;;;;;3.80;1.80;;;;;;;0.77;74.60;101679.50;5056225;28;20436;-74
2024/02/19 05:46:56;;;;;;;2.27;1.70;;;;;;;0.76;74.47;101681.19;5056158;28;20439;-74
2024/02/19 05:49:23;;;;;;;3.90;2.40;;;;;;;0.77;75.02;101679.50;5056436;28;20431;-78
2024/02/19 05:51:50;;;;;;;3.40;2.47;;;;;;;0.75;74.51;101676.88;5056112;28;20440;-78
2024/02/19 05:54:21;;;;;;;2.97;2.10;;;;;;;0.76;75.17;101672.59;5056033;28;20450;-78
2024/02/19 05:56:48;;;;;;;2.87;2.00;;;;;;;0.75;74.75;101668.28;5056060;28;20497;-78
2024/02/19 05:59:15;;;;;;;3.67;2.20;;;;;;;0.76;75.25;101670.00;5055972;28;20482;-78
2024/02/19 06:01:42;;;;;;;3.03;2.53;;;;;;;0.77;75.04;101669.22;5056197;28;20490;-78
2024/02/19 06:04:09;;;;;;;4.00;2.50;;;;;;;0.78;75.16;101663.22;5042135;28;20443;-79
2024/02/19 06:06:36;;;;;;;3.20;2.47;;;;;;;0.77;75.15;101664.06;5036030;28;20442;-78
2024/02/19 06:09:04;;;;;;;3.20;2.40;;;;;;;0.77;74.72;101657.19;5050018;28;20507;-78
2024/02/19 06:11:32;;;;;;;3.43;1.90;;;;;;;0.78;75.17;101655.50;5055844;28;20473;-77
2024/02/19 06:14:00;;;;;;;5.03;2.53;;;;;;;0.79;74.97;101652.97;5055796;28;20441;-79
2024/02/19 06:16:27;;;;;;;3.23;2.40;;;;;;;0.72;75.16;101634.69;5055618;28;20459;-78
2024/02/19 06:18:54;;;;;;;2.13;1.53;;;;;;;0.79;74.94;101646.94;5055985;28;20436;-76
2024/02/19 06:21:21;;;;;;;3.07;2.50;;;;;;;0.78;75.01;101635.75;5055449;28;20443;-76
2024/02/19 06:23:47;;;;;;;3.63;2.50;;;;;;;0.79;74.82;101639.19;5055666;28;20443;-76
2024/02/19 06:26:14;;;;;;;3.20;2.50;;;;;;;0.79;74.43;101637.53;5055341;28;20642;-76
2024/02/19 06:28:42;;;;;;;3.40;2.30;;;;;;;0.80;75.14;101635.81;5055225;28;20486;-75
2024/02/19 06:31:09;;;;;;;3.90;2.50;;;;;;;0.79;74.97;101632.38;5055349;28;20425;-74
2024/02/19 06:33:36;;;;;;;4.23;2.77;;;;;;;0.80;74.52;101638.38;5055269;28;20436;-74
2024/02/19 06:36:04;;;;;;;3.50;2.20;;;;;;;0.77;74.83;101625.41;5055339;28;20431;-74
2024/02/19 06:38:31;;;;;;;3.17;2.50;;;;;;;0.80;75.24;101633.25;5055219;28;20500;-75
2024/02/19 06:40:57;;;;;;;3.97;2.37;;;;;;;0.79;75.06;101636.63;5054443;28;20518;-75
2024/02/19 06:43:24;;;;;;;3.23;2.30;;;;;;;0.79;74.82;101634.94;5055110;28;20438;-75
2024/02/19 06:45:53;;;;;;;3.00;2.70;;;;;;;0.80;75.17;101633.25;5054992;28;20439;-75
2024/02/19 06:48:20;;;;;;;2.70;2.33;;;;;;;0.79;75.00;101634.03;5054845;28;20487;-75
2024/02/19 06:50:47;;;;;;;3.30;2.57;;;;;;;0.79;74.84;101627.22;5054987;28;20438;-74
2024/02/19 06:53:14;;;;;;;3.30;2.27;;;;;;;0.75;74.83;101620.22;5055155;28;20438;-75
2024/02/19 06:55:40;;;;;;;3.53;2.80;;;;;;;0.81;75.51;101619.53;5054697;28;21036;-75
2024/02/19 06:58:07;;;;;;;3.00;2.70;;;;;;;0.82;75.16;101625.53;5054934;28;20772;-73
2024/02/19 07:00:34;;;;;;;5.27;3.27;;;;;;;0.81;75.23;101614.38;5055059;28;20435;-74
2024/02/19 07:03:03;;;;;;;4.60;2.73;;;;;;;0.83;75.35;101623.03;5054462;28;20447;-75
2024/02/19 07:05:30;;;;;;;3.30;2.50;;;;;;;0.72;74.81;101603.78;5054735;28;20444;-75
2024/02/19 07:07:57;;;;;;;4.20;2.80;;;;;;;0.84;74.84;101613.59;5054508;28;20489;-74
2024/02/19 07:10:24;;;;;;;3.47;2.50;;;;;;;0.83;75.27;101617.00;5054639;28;20432;-75
2024/02/19 07:12:51;;;;;;;5.00;3.92;;;;;;;0.87;77.29;101617.13;5053632;28;20920;-73
2024/02/19 07:15:17;;;;;;;4.67;3.20;;;;;;;0.87;76.46;101608.53;5054373;28;20209;-74
2024/02/19 07:17:44;;;;;;;4.00;3.00;;;;;;;0.88;76.36;101611.16;5054352;28;20451;-73
2024/02/19 07:20:13;;;;;;;4.63;3.00;;;;;;;0.89;76.06;101612.03;5054545;28;20889;-73
2024/02/19 07:22:40;;;;;;;3.93;3.00;;;;;;;0.89;75.94;101606.88;5054571;28;20440;-74
2024/02/19 07:25:08;;;;;;;4.33;2.40;;;;;;;0.89;75.88;101612.91;5054240;28;20440;-73
2024/02/19 07:27:35;;;;;;;3.83;3.20;;;;;;;0.88;75.93;101608.59;5054272;28;20446;-73
2024/02/19 07:30:02;;;;;;;4.10;2.67;;;;;;;0.88;75.49;101608.59;5054464;28;20444;-76
2024/02/19 07:32:28;;;;;;;4.20;3.07;;;;;;;0.89;75.97;101612.03;5054376;28;20455;-76
2024/02/19 07:34:55;;;;;;;4.33;2.87;;;;;;;0.89;75.74;101609.47;5054215;28;20809;-76
2024/02/19 07:37:24;;;;;;;3.77;3.00;;;;;;;0.89;75.39;101609.47;5053838;28;20825;-74
2024/02/19 07:39:50;;;;;;;3.20;2.90;;;;;;;0.89;75.54;101601.72;5053068;28;20450;-75
2024/02/19 07:42:17;;;;;;;3.33;2.30;;;;;;;0.88;75.19;101606.00;5070297;28;20448;-75
2024/02/19 07:44:44;;;;;;;4.57;3.00;;;;;;;0.87;75.69;101604.25;5038225;28;20452;-75
2024/02/19 07:47:11;;;;;;;5.23;3.00;;;;;;;0.86;75.58;101607.66;5053844;28;20444;-76
2024/02/19 07:49:38;;;;;;;4.63;3.10;;;;;;;0.87;75.86;101605.94;5053866;28;20989;-73
2024/02/19 07:52:06;;;;;;;3.83;2.73;;;;;;;0.87;75.49;101609.41;5054012;28;20432;-73
2024/02/19 07:54:34;;;;;;;4.63;2.93;;;;;;;0.88;75.29;101606.00;5053638;28;20479;-74
2024/02/19 07:57:01;;;;;;;5.10;3.53;;;;;;;0.88;75.67;101607.69;5053676;28;20937;-75
2024/02/19 07:59:28;;;;;;;4.20;3.60;;;;;;;0.88;75.37;101606.00;5053130;28;20963;-74
2024/02/19 08:01:55;;;;;;;4.63;3.80;;;;;;;0.89;75.51;101610.31;5064521;28;20436;-74
2024/02/19 08:04:26;;;;;;;3.60;3.13;;;;;;;0.89;75.83;101612.91;5035485;28;20454;-75
2024/02/19 08:06:53;;;;;;;5.50;3.77;;;;;;;0.88;75.63;101606.00;5033540;28;20524;-74
2024/02/19 08:09:20;;;;;;;5.60;3.53;;;;;;;0.89;75.53;101607.75;5033363;28;20486;-72
2024/02/19 08:11:50;;;;;;;4.70;3.77;;;;;;;0.90;75.24;101608.63;5033750;28;20522;-74
2024/02/19 08:14:16;;;;;;;5.20;3.63;;;;;;;0.90;75.73;101606.91;5042951;28;20514;-75
2024/02/19 08:16:43;;;;;;;6.37;4.33;;;;;;;0.90;75.37;101599.19;5053294;28;20445;-72
2024/02/19 08:19:10;;;;;;;5.53;3.50;;;;;;;0.91;75.49;101605.25;5053306;28;20456;-74
2024/02/19 08:21:37;;;;;;;5.57;4.13;;;;;;;0.91;75.35;101595.81;5053203;28;20616;-73
2024/02/19 08:24:04;;;;;;;5.07;3.77;;;;;;;0.92;75.47;101594.09;5053403;28;20456;-75
2024/02/19 08:26:31;;;;;;;5.30;3.43;;;;;;;0.93;75.80;101582.94;5052981;28;20833;-73
2024/02/19 08:28:59;;;;;;;4.47;3.67;;;;;;;0.93;75.28;101583.81;5052966;28;20480;-73
2024/02/19 08:31:27;;;;;;;4.73;3.17;;;;;;;0.92;75.26;101582.06;5053336;28;20446;-73
2024/02/19 08:33:54;;;;;;;5.87;3.67;;;;;;;0.93;75.55;101583.81;5053017;28;20923;-75
2024/02/19 08:36:21;;;;;;;6.77;4.23;;;;;;;0.95;75.70;101581.28;5053028;28;20433;-74
2024/02/19 08:38:49;;;;;;;4.47;3.37;;;;;;;0.95;75.93;101574.44;5052934;28;20944;-70
2024/02/19 08:41:16;;;;;;;3.77;2.83;;;;;;;0.96;75.75;101572.72;5052984;28;20436;-70
2024/02/19 08:43:43;;;;;;;4.10;3.10;;;;;;;0.95;75.35;101571.00;5052884;28;20437;-69
2024/02/19 08:46:11;;;;;;;4.10;3.17;;;;;;;0.97;75.77;101565.06;5052946;28;20435;-70
2024/02/19 08:48:38;;;;;;;4.43;3.27;;;;;;;0.97;75.87;101559.91;5052618;28;20486;-70
2024/02/19 08:51:05;;;;;;;5.37;3.60;;;;;;;0.98;75.44;101553.91;5052728;28;20452;-71
2024/02/19 08:53:33;;;;;;;5.33;3.20;;;;;;;0.99;75.49;101553.09;5052875;28;20472;-70
2024/02/19 08:55:59;;;;;;;4.97;3.60;;;;;;;0.97;75.83;101546.16;5052728;28;20473;-71
2024/02/19 08:58:28;;;;;;;5.27;3.13;;;;;;;0.99;75.13;101547.03;5052646;28;20439;-71
2024/02/19 09:00:57;;;;;;;4.60;3.23;;;;;;;0.99;75.73;101540.22;5052664;28;20441;-70
2024/02/19 09:03:25;;;;;;;5.67;3.43;;;;;;;1.00;75.67;101539.38;5052613;28;20447;-70
2024/02/19 09:05:52;;;;;;;4.13;3.10;;;;;;;1.01;75.74;101538.53;5052506;28;20435;-70
2024/02/19 09:08:19;;;;;;;4.83;3.53;;;;;;;1.03;75.27;101536.88;5052358;28;20485;-70
2024/02/19 09:10:46;;;;;;;5.70;3.27;;;;;;;1.05;75.35;101542.09;5052742;28;20933;-70
2024/02/19 09:13:12;;;;;;;4.23;3.33;;;;;;;1.06;75.62;101535.22;5052426;28;20941;-68
2024/02/19 09:15:39;;;;;;;4.83;4.00;;;;;;;1.06;75.47;101537.81;5052418;28;20440;-69
2024/02/19 09:18:06;;;;;;;5.40;3.90;;;;;;;1.05;75.50;101533.47;5052801;28;20812;-76
2024/02/19 09:20:34;;;;;;;6.23;4.20;;;;;;;1.08;75.51;101539.59;5052528;28;20443;-78
2024/02/19 09:23:01;;;;;;;6.77;4.47;;;;;;;1.10;76.00;101530.19;5052475;28;20448;-78
2024/02/19 09:25:28;;;;;;;6.73;4.07;;;;;;;1.13;75.94;101531.97;5052950;28;20443;-77
2024/02/19 09:27:55;;;;;;;5.20;3.53;;;;;;;1.13;75.62;101524.25;5052456;28;20436;-78
2024/02/19 09:30:22;;;;;;;4.33;3.53;;;;;;;1.15;75.97;101533.78;5052342;28;20480;-76
2024/02/19 09:32:49;;;;;;;4.43;3.20;;;;;;;1.14;75.89;101526.03;5063830;28;20438;-77
2024/02/19 09:35:16;;;;;;;4.00;3.30;;;;;;;1.16;76.21;101530.38;5055055;28;20478;-76
2024/02/19 09:37:45;;;;;;;4.47;3.23;;;;;;;1.17;75.56;101526.09;5052337;28;20489;-77
2024/02/19 09:40:14;;;;;;;3.53;2.57;;;;;;;1.17;75.85;101532.13;5068210;28;20455;-77
2024/02/19 09:42:41;;;;;;;4.77;3.57;;;;;;;1.18;75.87;101530.41;5072312;28;20427;-75
2024/02/19 09:45:10;;;;;;;4.80;3.60;;;;;;;1.19;75.99;101529.56;5072615;28;20439;-76
2024/02/19 09:47:39;;;;;;;4.87;3.67;;;;;;;1.22;76.02;101534.81;5062466;28;20501;-75
2024/02/19 09:50:10;;;;;;;4.70;3.73;;;;;;;1.24;75.36;101522.84;5052142;28;20480;-67
2024/02/19 09:52:37;;;;;;;5.10;3.70;;;;;;;1.25;75.84;101522.03;5052069;28;20557;-68
2024/02/19 09:55:07;;;;;;;6.03;3.80;;;;;;;1.27;75.66;101524.63;5051916;28;20473;-67
2024/02/19 09:57:34;;;;;;;4.93;3.90;;;;;;;1.28;76.11;101518.63;5052055;28;20437;-67
2024/02/19 10:00:03;;;;;;;5.40;3.13;;;;;;;1.28;75.44;101527.28;5052013;28;20450;-67
2024/02/19 10:02:30;;;;;;;6.50;4.10;;;;;;;1.30;75.75;101522.13;5051624;28;20453;-67
2024/02/19 10:04:59;;;;;;;5.07;4.27;;;;;;;1.31;75.89;101516.16;5051978;28;20429;-67
2024/02/19 10:07:26;;;;;;;6.77;4.13;;;;;;;1.31;75.40;101522.19;5052041;28;20477;-67
2024/02/19 10:09:52;;;;;;;6.77;4.33;;;;;;;1.33;75.49;101523.09;5051774;28;20483;-67
2024/02/19 10:12:21;;;;;;;8.90;5.30;;;;;;;1.35;75.61;101526.59;5052073;28;20445;-67
2024/02/19 10:14:48;;;;;;;5.43;3.33;;;;;;;1.35;75.50;101512.84;5052005;28;20442;-68
2024/02/19 10:17:21;;;;;;;7.13;4.83;;;;;;;1.37;75.37;101524.06;5055335;28;20443;-68
2024/02/19 10:19:59;;;;;;;6.50;3.43;;;;;;;1.38;75.35;101518.94;5055482;28;20447;-67
2024/02/19 10:22:25;;;;;;;5.30;4.13;;;;;;;1.38;75.48;101516.34;5055458;28;20944;-68
2024/02/19 10:24:52;;;;;;;4.93;4.40;;;;;;;1.39;75.34;101525.84;5055297;28;20977;-67
2024/02/19 10:27:21;;;;;;;6.37;4.43;;;;;;;1.41;75.45;101510.41;5055456;28;20900;-67
2024/02/19 10:29:48;;;;;;;6.03;4.43;;;;;;;1.42;75.61;101518.19;5055223;28;20475;-75
2024/02/19 10:32:15;;;;;;;4.10;3.20;;;;;;;1.44;75.42;101510.50;5055526;28;20428;-75
2024/02/19 10:34:42;;;;;;;5.47;4.37;;;;;;;1.44;75.40;101511.34;5055667;28;20452;-76
2024/02/19 10:37:09;;;;;;;5.60;4.47;;;;;;;1.46;75.52;101508.84;5055292;28;20451;-77
2024/02/19 10:39:35;;;;;;;5.47;4.63;;;;;;;1.47;75.85;101508.00;5055239;28;20448;-75
2024/02/19 10:42:02;;;;;;;5.33;3.87;;;;;;;1.48;75.49;101502.88;5055178;28;20795;-75
2024/02/19 10:44:33;;;;;;;4.77;4.13;;;;;;;1.51;76.05;101501.22;5055196;28;20446;-75
2024/02/19 10:47:00;;;;;;;6.63;4.20;;;;;;;1.51;75.69;101499.53;5055253;28;20809;-76
2024/02/19 10:49:27;;;;;;;5.63;3.87;;;;;;;1.52;75.73;101500.38;5054928;28;20976;-75
2024/02/19 10:51:54;;;;;;;5.10;3.83;;;;;;;1.53;75.89;101503.00;5055201;28;20432;-76
2024/02/19 10:54:21;;;;;;;5.60;3.83;;;;;;;1.55;75.66;101503.03;5054728;28;20812;-75
2024/02/19 10:56:48;;;;;;;5.53;4.00;;;;;;;1.55;75.48;101497.88;5055112;28;20487;-75
2024/02/19 10:59:15;;;;;;;5.80;4.47;;;;;;;1.56;75.45;101497.03;5054869;28;20452;-67
2024/02/19 11:01:46;;;;;;;5.67;3.73;;;;;;;1.56;75.66;101499.63;5054689;28;20857;-68
2024/02/19 11:04:24;;;;;;;5.37;3.90;;;;;;;1.57;75.89;101491.06;5054952;28;20445;-68
2024/02/19 11:06:54;;;;;;;4.83;3.93;;;;;;;1.57;75.81;101496.22;5054445;28;20952;-68
2024/02/19 11:09:22;;;;;;;4.87;3.40;;;;;;;1.56;76.01;101489.31;5054556;28;20485;-68
2024/02/19 11:11:56;;;;;;;6.20;4.10;;;;;;;1.58;75.48;101493.66;5054674;28;20450;-68
2024/02/19 11:14:24;;;;;;;5.03;3.90;;;;;;;1.58;75.35;101487.66;5054360;28;20490;-68
2024/02/19 11:16:54;;;;;;;6.30;4.53;;;;;;;1.59;75.55;101484.22;5054406;28;20431;-68
2024/02/19 11:19:22;;;;;;;6.30;3.87;;;;;;;1.60;75.38;101485.97;5054195;28;20451;-68
2024/02/19 11:21:50;;;;;;;6.37;4.07;;;;;;;1.60;75.22;101480.81;5054393;28;20448;-68
2024/02/19 11:24:16;;;;;;;6.23;4.20;;;;;;;1.61;75.21;101474.81;5054253;28;20450;-68
2024/02/19 11:26:44;;;;;;;7.17;4.67;;;;;;;1.61;75.40;101472.25;5053793;28;20449;-68
2024/02/19 11:29:14;;;;;;;6.97;4.53;;;;;;;1.60;75.23;101468.78;5054097;28;20519;-68
2024/02/19 11:31:41;;;;;;;5.53;4.10;;;;;;;1.62;75.42;101469.72;5054401;28;20432;-68
2024/02/19 11:34:14;;;;;;;6.03;4.50;;;;;;;1.64;75.14;101467.16;5054260;28;20799;-68